sensor_id;sensor_type;location;lat;lon;timestamp;P1;durP1;ratioP1;P2;durP2;ratioP2
4957;SDS011;2494;51.872;9.688;2023-05-10T00:02:35;2.57;;;2.37;;
4957;SDS011;2494;51.872;9.688;2023-05-10T00:05:20;3.60;;;3.40;;
4957;SDS011;2494;51.872;9.688;2023-05-10T00:08:05;3.13;;;2.90;;
4957;SDS011;2494;51.872;9.688;2023-05-10T00:10:54;5.43;;;2.60;;
4957;SDS011;2494;51.872;9.688;2023-05-10T00:13:41;4.70;;;2.67;;
4957;SDS011;2494;51.872;9.688;2023-05-10T00:16:26;6.37;;;2.70;;
4957;SDS011;2494;51.872;9.688;2023-05-10T00:19:11;2.87;;;2.67;;
4957;SDS011;2494;51.872;9.688;2023-05-10T00:21:57;2.90;;;2.60;;
4957;SDS011;2494;51.872;9.688;2023-05-10T00:24:42;7.73;;;2.90;;
4957;SDS011;2494;51.872;9.688;2023-05-10T00:27:27;4.00;;;3.20;;
4957;SDS011;2494;51.872;9.688;2023-05-10T00:30:14;2.80;;;2.60;;
4957;SDS011;2494;51.872;9.688;2023-05-10T00:32:59;4.60;;;2.80;;
4957;SDS011;2494;51.872;9.688;2023-05-10T00:35:45;3.40;;;3.10;;
4957;SDS011;2494;51.872;9.688;2023-05-10T00:38:30;5.23;;;2.60;;
4957;SDS011;2494;51.872;9.688;2023-05-10T00:41:16;3.97;;;2.33;;
4957;SDS011;2494;51.872;9.688;2023-05-10T00:44:01;6.23;;;3.07;;
4957;SDS011;2494;51.872;9.688;2023-05-10T00:46:47;3.17;;;2.90;;
4957;SDS011;2494;51.872;9.688;2023-05-10T00:49:33;2.70;;;2.50;;
4957;SDS011;2494;51.872;9.688;2023-05-10T00:52:19;2.53;;;2.33;;
4957;SDS011;2494;51.872;9.688;2023-05-10T00:55:05;5.63;;;3.07;;
4957;SDS011;2494;51.872;9.688;2023-05-10T00:57:51;3.40;;;3.20;;
4957;SDS011;2494;51.872;9.688;2023-05-10T01:00:37;2.60;;;2.40;;
4957;SDS011;2494;51.872;9.688;2023-05-10T01:03:24;2.63;;;2.43;;
4957;SDS011;2494;51.872;9.688;2023-05-10T01:06:09;5.87;;;2.97;;
4957;SDS011;2494;51.872;9.688;2023-05-10T01:08:55;3.30;;;2.67;;
4957;SDS011;2494;51.872;9.688;2023-05-10T01:11:40;3.87;;;3.00;;
4957;SDS011;2494;51.872;9.688;2023-05-10T01:14:25;3.10;;;2.90;;
4957;SDS011;2494;51.872;9.688;2023-05-10T01:17:11;3.03;;;2.67;;
4957;SDS011;2494;51.872;9.688;2023-05-10T01:19:58;3.83;;;2.33;;
4957;SDS011;2494;51.872;9.688;2023-05-10T01:22:57;4.03;;;3.07;;
4957;SDS011;2494;51.872;9.688;2023-05-10T01:26:13;3.07;;;2.70;;
4957;SDS011;2494;51.872;9.688;2023-05-10T01:29:11;4.33;;;2.67;;
4957;SDS011;2494;51.872;9.688;2023-05-10T01:32:04;3.00;;;2.63;;
4957;SDS011;2494;51.872;9.688;2023-05-10T01:34:54;3.53;;;2.43;;
4957;SDS011;2494;51.872;9.688;2023-05-10T01:37:41;8.33;;;2.63;;
4957;SDS011;2494;51.872;9.688;2023-05-10T01:40:29;2.97;;;2.77;;
4957;SDS011;2494;51.872;9.688;2023-05-10T01:43:17;3.23;;;2.93;;
4957;SDS011;2494;51.872;9.688;2023-05-10T01:46:04;3.00;;;2.80;;
4957;SDS011;2494;51.872;9.688;2023-05-10T01:48:55;5.13;;;2.67;;
4957;SDS011;2494;51.872;9.688;2023-05-10T01:51:45;3.43;;;2.63;;
4957;SDS011;2494;51.872;9.688;2023-05-10T01:54:31;3.10;;;2.90;;
4957;SDS011;2494;51.872;9.688;2023-05-10T01:57:18;4.87;;;2.73;;
4957;SDS011;2494;51.872;9.688;2023-05-10T02:00:04;4.20;;;3.37;;
4957;SDS011;2494;51.872;9.688;2023-05-10T02:02:51;3.50;;;3.30;;
4957;SDS011;2494;51.872;9.688;2023-05-10T02:05:39;5.33;;;3.40;;
4957;SDS011;2494;51.872;9.688;2023-05-10T02:08:25;3.37;;;3.07;;
4957;SDS011;2494;51.872;9.688;2023-05-10T02:11:11;3.37;;;3.07;;
4957;SDS011;2494;51.872;9.688;2023-05-10T02:13:57;2.73;;;2.60;;
4957;SDS011;2494;51.872;9.688;2023-05-10T02:16:43;3.40;;;3.07;;
4957;SDS011;2494;51.872;9.688;2023-05-10T02:19:29;3.50;;;3.20;;
4957;SDS011;2494;51.872;9.688;2023-05-10T02:22:16;4.40;;;2.90;;
4957;SDS011;2494;51.872;9.688;2023-05-10T02:25:02;3.33;;;3.13;;
4957;SDS011;2494;51.872;9.688;2023-05-10T02:27:48;3.03;;;2.83;;
4957;SDS011;2494;51.872;9.688;2023-05-10T02:30:33;6.37;;;3.47;;
4957;SDS011;2494;51.872;9.688;2023-05-10T02:33:19;4.07;;;3.70;;
4957;SDS011;2494;51.872;9.688;2023-05-10T02:36:06;3.30;;;3.10;;
4957;SDS011;2494;51.872;9.688;2023-05-10T02:38:53;3.10;;;2.90;;
4957;SDS011;2494;51.872;9.688;2023-05-10T02:41:38;3.67;;;3.37;;
4957;SDS011;2494;51.872;9.688;2023-05-10T02:44:25;4.20;;;3.77;;
4957;SDS011;2494;51.872;9.688;2023-05-10T02:47:12;5.10;;;4.03;;
4957;SDS011;2494;51.872;9.688;2023-05-10T02:49:57;5.47;;;4.07;;
4957;SDS011;2494;51.872;9.688;2023-05-10T02:52:44;5.90;;;3.70;;
4957;SDS011;2494;51.872;9.688;2023-05-10T02:55:36;4.10;;;3.70;;
4957;SDS011;2494;51.872;9.688;2023-05-10T02:58:22;3.63;;;3.43;;
4957;SDS011;2494;51.872;9.688;2023-05-10T03:01:08;4.10;;;3.80;;
4957;SDS011;2494;51.872;9.688;2023-05-10T03:03:53;7.90;;;3.70;;
4957;SDS011;2494;51.872;9.688;2023-05-10T03:06:38;4.80;;;3.67;;
4957;SDS011;2494;51.872;9.688;2023-05-10T03:09:24;4.33;;;3.93;;
4957;SDS011;2494;51.872;9.688;2023-05-10T03:12:13;4.50;;;4.20;;
4957;SDS011;2494;51.872;9.688;2023-05-10T03:15:00;4.13;;;3.73;;
4957;SDS011;2494;51.872;9.688;2023-05-10T03:17:50;4.53;;;4.00;;
4957;SDS011;2494;51.872;9.688;2023-05-10T03:20:38;5.00;;;4.60;;
4957;SDS011;2494;51.872;9.688;2023-05-10T03:23:27;7.77;;;4.80;;
4957;SDS011;2494;51.872;9.688;2023-05-10T03:26:15;3.90;;;3.50;;
4957;SDS011;2494;51.872;9.688;2023-05-10T03:29:04;5.57;;;5.00;;
4957;SDS011;2494;51.872;9.688;2023-05-10T03:31:49;6.43;;;5.27;;
4957;SDS011;2494;51.872;9.688;2023-05-10T03:34:36;4.97;;;4.50;;
4957;SDS011;2494;51.872;9.688;2023-05-10T03:37:26;4.30;;;3.97;;
4957;SDS011;2494;51.872;9.688;2023-05-10T03:40:11;4.27;;;3.90;;
4957;SDS011;2494;51.872;9.688;2023-05-10T03:42:57;3.60;;;3.40;;
4957;SDS011;2494;51.872;9.688;2023-05-10T03:45:43;4.07;;;3.60;;
4957;SDS011;2494;51.872;9.688;2023-05-10T03:48:28;6.50;;;4.80;;
4957;SDS011;2494;51.872;9.688;2023-05-10T03:51:14;4.80;;;4.40;;
4957;SDS011;2494;51.872;9.688;2023-05-10T03:54:00;3.93;;;3.73;;
4957;SDS011;2494;51.872;9.688;2023-05-10T03:56:45;4.93;;;4.50;;
4957;SDS011;2494;51.872;9.688;2023-05-10T03:59:31;5.33;;;4.93;;
4957;SDS011;2494;51.872;9.688;2023-05-10T04:02:18;4.70;;;4.40;;
4957;SDS011;2494;51.872;9.688;2023-05-10T04:05:03;4.60;;;4.20;;
4957;SDS011;2494;51.872;9.688;2023-05-10T04:07:49;5.10;;;4.80;;
4957;SDS011;2494;51.872;9.688;2023-05-10T04:10:34;5.13;;;4.73;;
4957;SDS011;2494;51.872;9.688;2023-05-10T04:13:20;6.50;;;6.00;;
4957;SDS011;2494;51.872;9.688;2023-05-10T04:16:06;5.90;;;4.70;;
4957;SDS011;2494;51.872;9.688;2023-05-10T04:18:55;5.67;;;5.30;;
4957;SDS011;2494;51.872;9.688;2023-05-10T04:21:40;5.40;;;5.00;;
4957;SDS011;2494;51.872;9.688;2023-05-10T04:24:25;6.13;;;5.67;;
4957;SDS011;2494;51.872;9.688;2023-05-10T04:27:11;6.23;;;5.73;;
4957;SDS011;2494;51.872;9.688;2023-05-10T04:29:56;6.00;;;5.60;;
4957;SDS011;2494;51.872;9.688;2023-05-10T04:32:41;7.43;;;6.73;;
4957;SDS011;2494;51.872;9.688;2023-05-10T04:35:29;7.00;;;6.40;;
4957;SDS011;2494;51.872;9.688;2023-05-10T04:38:14;6.90;;;6.23;;
4957;SDS011;2494;51.872;9.688;2023-05-10T04:41:03;8.00;;;7.23;;
4957;SDS011;2494;51.872;9.688;2023-05-10T04:43:49;7.77;;;7.03;;
4957;SDS011;2494;51.872;9.688;2023-05-10T04:46:34;9.23;;;7.30;;
4957;SDS011;2494;51.872;9.688;2023-05-10T04:49:20;8.90;;;7.77;;
4957;SDS011;2494;51.872;9.688;2023-05-10T04:52:07;11.67;;;7.50;;
4957;SDS011;2494;51.872;9.688;2023-05-10T04:54:52;7.10;;;6.47;;
4957;SDS011;2494;51.872;9.688;2023-05-10T04:57:37;6.90;;;6.50;;
4957;SDS011;2494;51.872;9.688;2023-05-10T05:00:23;7.33;;;6.57;;
4957;SDS011;2494;51.872;9.688;2023-05-10T05:03:08;6.80;;;6.37;;
4957;SDS011;2494;51.872;9.688;2023-05-10T05:05:53;8.87;;;8.17;;
4957;SDS011;2494;51.872;9.688;2023-05-10T05:08:40;7.30;;;6.80;;
4957;SDS011;2494;51.872;9.688;2023-05-10T05:11:25;8.60;;;7.83;;
4957;SDS011;2494;51.872;9.688;2023-05-10T05:14:11;7.63;;;6.33;;
4957;SDS011;2494;51.872;9.688;2023-05-10T05:16:56;6.63;;;6.10;;
4957;SDS011;2494;51.872;9.688;2023-05-10T05:19:44;7.77;;;7.27;;
4957;SDS011;2494;51.872;9.688;2023-05-10T05:22:31;8.00;;;7.20;;
4957;SDS011;2494;51.872;9.688;2023-05-10T05:25:19;7.53;;;7.00;;
4957;SDS011;2494;51.872;9.688;2023-05-10T05:28:07;8.07;;;7.27;;
4957;SDS011;2494;51.872;9.688;2023-05-10T05:30:53;7.20;;;6.60;;
4957;SDS011;2494;51.872;9.688;2023-05-10T05:33:38;8.17;;;7.40;;
4957;SDS011;2494;51.872;9.688;2023-05-10T05:36:24;8.10;;;7.40;;
4957;SDS011;2494;51.872;9.688;2023-05-10T05:39:11;8.40;;;7.70;;
4957;SDS011;2494;51.872;9.688;2023-05-10T05:41:57;7.83;;;7.20;;
4957;SDS011;2494;51.872;9.688;2023-05-10T05:44:43;7.17;;;6.67;;
4957;SDS011;2494;51.872;9.688;2023-05-10T05:47:29;9.13;;;8.13;;
4957;SDS011;2494;51.872;9.688;2023-05-10T05:50:15;6.87;;;6.37;;
4957;SDS011;2494;51.872;9.688;2023-05-10T05:53:00;8.87;;;8.10;;
4957;SDS011;2494;51.872;9.688;2023-05-10T05:55:51;7.77;;;7.17;;
4957;SDS011;2494;51.872;9.688;2023-05-10T05:58:38;8.10;;;7.40;;
4957;SDS011;2494;51.872;9.688;2023-05-10T06:01:24;7.90;;;7.10;;
4957;SDS011;2494;51.872;9.688;2023-05-10T06:04:09;7.97;;;7.33;;
4957;SDS011;2494;51.872;9.688;2023-05-10T06:06:54;6.80;;;6.30;;
4957;SDS011;2494;51.872;9.688;2023-05-10T06:09:40;7.77;;;7.20;;
4957;SDS011;2494;51.872;9.688;2023-05-10T06:12:26;7.93;;;7.40;;
4957;SDS011;2494;51.872;9.688;2023-05-10T06:15:13;8.67;;;7.77;;
4957;SDS011;2494;51.872;9.688;2023-05-10T06:17:59;9.30;;;8.63;;
4957;SDS011;2494;51.872;9.688;2023-05-10T06:20:44;10.20;;;8.77;;
4957;SDS011;2494;51.872;9.688;2023-05-10T06:23:29;10.07;;;9.07;;
4957;SDS011;2494;51.872;9.688;2023-05-10T06:26:16;8.70;;;7.90;;
4957;SDS011;2494;51.872;9.688;2023-05-10T06:29:04;8.13;;;7.50;;
4957;SDS011;2494;51.872;9.688;2023-05-10T06:31:51;8.70;;;8.00;;
4957;SDS011;2494;51.872;9.688;2023-05-10T06:34:37;11.13;;;8.80;;
4957;SDS011;2494;51.872;9.688;2023-05-10T06:37:23;9.73;;;8.73;;
4957;SDS011;2494;51.872;9.688;2023-05-10T06:40:09;9.80;;;8.90;;
4957;SDS011;2494;51.872;9.688;2023-05-10T06:42:55;11.40;;;10.30;;
4957;SDS011;2494;51.872;9.688;2023-05-10T06:45:41;12.03;;;10.10;;
4957;SDS011;2494;51.872;9.688;2023-05-10T06:48:29;13.83;;;9.60;;
4957;SDS011;2494;51.872;9.688;2023-05-10T06:51:14;9.97;;;8.97;;
4957;SDS011;2494;51.872;9.688;2023-05-10T06:53:59;10.77;;;9.77;;
4957;SDS011;2494;51.872;9.688;2023-05-10T06:56:45;9.00;;;8.30;;
4957;SDS011;2494;51.872;9.688;2023-05-10T06:59:30;10.10;;;9.30;;
4957;SDS011;2494;51.872;9.688;2023-05-10T07:02:16;8.77;;;7.33;;
4957;SDS011;2494;51.872;9.688;2023-05-10T07:05:03;2.37;;;2.20;;
4957;SDS011;2494;51.872;9.688;2023-05-10T07:07:49;1.77;;;1.67;;
4957;SDS011;2494;51.872;9.688;2023-05-10T07:10:35;3.77;;;1.70;;
4957;SDS011;2494;51.872;9.688;2023-05-10T07:13:21;3.13;;;1.43;;
4957;SDS011;2494;51.872;9.688;2023-05-10T07:16:07;1.30;;;1.20;;
4957;SDS011;2494;51.872;9.688;2023-05-10T07:18:52;2.07;;;1.40;;
4957;SDS011;2494;51.872;9.688;2023-05-10T07:21:45;2.57;;;1.00;;
4957;SDS011;2494;51.872;9.688;2023-05-10T07:24:31;2.80;;;1.20;;
4957;SDS011;2494;51.872;9.688;2023-05-10T07:27:17;1.33;;;0.90;;
4957;SDS011;2494;51.872;9.688;2023-05-10T07:30:03;1.60;;;0.90;;
4957;SDS011;2494;51.872;9.688;2023-05-10T07:32:50;0.80;;;0.70;;
4957;SDS011;2494;51.872;9.688;2023-05-10T07:35:36;0.80;;;0.80;;
4957;SDS011;2494;51.872;9.688;2023-05-10T07:38:24;1.00;;;0.90;;
4957;SDS011;2494;51.872;9.688;2023-05-10T07:41:13;1.20;;;1.10;;
4957;SDS011;2494;51.872;9.688;2023-05-10T07:43:58;1.20;;;1.10;;
4957;SDS011;2494;51.872;9.688;2023-05-10T07:46:44;1.20;;;1.10;;
4957;SDS011;2494;51.872;9.688;2023-05-10T07:49:29;1.20;;;1.10;;
4957;SDS011;2494;51.872;9.688;2023-05-10T07:52:15;2.33;;;2.13;;
4957;SDS011;2494;51.872;9.688;2023-05-10T07:55:03;2.90;;;1.30;;
4957;SDS011;2494;51.872;9.688;2023-05-10T07:57:49;1.40;;;1.30;;
4957;SDS011;2494;51.872;9.688;2023-05-10T08:00:34;1.13;;;1.03;;
4957;SDS011;2494;51.872;9.688;2023-05-10T08:03:22;1.40;;;1.30;;
4957;SDS011;2494;51.872;9.688;2023-05-10T08:06:08;1.20;;;1.10;;
4957;SDS011;2494;51.872;9.688;2023-05-10T08:08:53;4.10;;;1.70;;
4957;SDS011;2494;51.872;9.688;2023-05-10T08:11:40;7.27;;;3.07;;
4957;SDS011;2494;51.872;9.688;2023-05-10T08:14:27;1.97;;;1.37;;
4957;SDS011;2494;51.872;9.688;2023-05-10T08:17:14;2.50;;;1.10;;
4957;SDS011;2494;51.872;9.688;2023-05-10T08:19:59;3.03;;;1.17;;
4957;SDS011;2494;51.872;9.688;2023-05-10T08:22:44;0.90;;;0.90;;
4957;SDS011;2494;51.872;9.688;2023-05-10T08:25:30;1.63;;;1.00;;
4957;SDS011;2494;51.872;9.688;2023-05-10T08:28:18;5.73;;;1.20;;
4957;SDS011;2494;51.872;9.688;2023-05-10T08:31:05;1.23;;;1.13;;
4957;SDS011;2494;51.872;9.688;2023-05-10T08:33:51;1.50;;;1.10;;
4957;SDS011;2494;51.872;9.688;2023-05-10T08:36:36;1.13;;;1.13;;
4957;SDS011;2494;51.872;9.688;2023-05-10T08:39:21;1.40;;;1.30;;
4957;SDS011;2494;51.872;9.688;2023-05-10T08:42:10;1.80;;;1.70;;
4957;SDS011;2494;51.872;9.688;2023-05-10T08:44:57;2.47;;;2.27;;
4957;SDS011;2494;51.872;9.688;2023-05-10T08:47:44;1.60;;;1.50;;
4957;SDS011;2494;51.872;9.688;2023-05-10T08:50:30;3.17;;;2.00;;
4957;SDS011;2494;51.872;9.688;2023-05-10T08:53:15;1.50;;;1.13;;
4957;SDS011;2494;51.872;9.688;2023-05-10T08:56:01;1.73;;;1.63;;
4957;SDS011;2494;51.872;9.688;2023-05-10T08:58:47;3.87;;;1.90;;
4957;SDS011;2494;51.872;9.688;2023-05-10T09:01:35;1.40;;;1.30;;
4957;SDS011;2494;51.872;9.688;2023-05-10T09:04:21;1.20;;;1.10;;
4957;SDS011;2494;51.872;9.688;2023-05-10T09:07:07;1.87;;;1.20;;
4957;SDS011;2494;51.872;9.688;2023-05-10T09:09:53;2.17;;;1.50;;
4957;SDS011;2494;51.872;9.688;2023-05-10T09:12:39;1.33;;;1.10;;
4957;SDS011;2494;51.872;9.688;2023-05-10T09:15:24;1.00;;;0.90;;
4957;SDS011;2494;51.872;9.688;2023-05-10T09:18:11;1.80;;;1.10;;
4957;SDS011;2494;51.872;9.688;2023-05-10T09:20:57;1.20;;;1.00;;
4957;SDS011;2494;51.872;9.688;2023-05-10T09:23:42;1.03;;;0.93;;
4957;SDS011;2494;51.872;9.688;2023-05-10T09:26:27;1.13;;;1.03;;
4957;SDS011;2494;51.872;9.688;2023-05-10T09:29:12;1.07;;;0.97;;
4957;SDS011;2494;51.872;9.688;2023-05-10T09:31:59;1.07;;;0.97;;
4957;SDS011;2494;51.872;9.688;2023-05-10T09:34:46;1.40;;;1.00;;
4957;SDS011;2494;51.872;9.688;2023-05-10T09:37:35;1.17;;;1.07;;
4957;SDS011;2494;51.872;9.688;2023-05-10T09:40:21;1.30;;;1.20;;
4957;SDS011;2494;51.872;9.688;2023-05-10T09:43:07;1.10;;;1.00;;
4957;SDS011;2494;51.872;9.688;2023-05-10T09:45:54;1.20;;;0.90;;
4957;SDS011;2494;51.872;9.688;2023-05-10T09:48:41;1.10;;;0.97;;
4957;SDS011;2494;51.872;9.688;2023-05-10T09:51:28;1.27;;;0.90;;
4957;SDS011;2494;51.872;9.688;2023-05-10T09:54:13;0.80;;;0.80;;
4957;SDS011;2494;51.872;9.688;2023-05-10T09:56:59;1.20;;;0.90;;
4957;SDS011;2494;51.872;9.688;2023-05-10T09:59:44;1.10;;;1.00;;
4957;SDS011;2494;51.872;9.688;2023-05-10T10:02:31;3.83;;;3.50;;
4957;SDS011;2494;51.872;9.688;2023-05-10T10:05:19;1.40;;;1.30;;
4957;SDS011;2494;51.872;9.688;2023-05-10T10:08:06;1.53;;;1.20;;
4957;SDS011;2494;51.872;9.688;2023-05-10T10:10:51;1.80;;;1.23;;
4957;SDS011;2494;51.872;9.688;2023-05-10T10:13:37;2.10;;;1.30;;
4957;SDS011;2494;51.872;9.688;2023-05-10T10:16:22;1.80;;;1.23;;
4957;SDS011;2494;51.872;9.688;2023-05-10T10:19:07;2.57;;;1.50;;
4957;SDS011;2494;51.872;9.688;2023-05-10T10:21:52;2.40;;;1.20;;
4957;SDS011;2494;51.872;9.688;2023-05-10T10:24:39;1.30;;;1.20;;
4957;SDS011;2494;51.872;9.688;2023-05-10T10:27:26;1.90;;;1.20;;
4957;SDS011;2494;51.872;9.688;2023-05-10T10:30:16;1.50;;;1.10;;
4957;SDS011;2494;51.872;9.688;2023-05-10T10:33:13;1.73;;;1.00;;
4957;SDS011;2494;51.872;9.688;2023-05-10T10:36:03;2.70;;;2.50;;
4957;SDS011;2494;51.872;9.688;2023-05-10T10:38:55;1.47;;;1.20;;
4957;SDS011;2494;51.872;9.688;2023-05-10T10:41:50;1.63;;;1.53;;
4957;SDS011;2494;51.872;9.688;2023-05-10T10:44:36;3.50;;;1.90;;
4957;SDS011;2494;51.872;9.688;2023-05-10T10:47:22;1.73;;;1.63;;
4957;SDS011;2494;51.872;9.688;2023-05-10T10:50:08;2.07;;;1.97;;
4957;SDS011;2494;51.872;9.688;2023-05-10T10:52:56;2.03;;;1.73;;
4957;SDS011;2494;51.872;9.688;2023-05-10T10:56:02;2.00;;;1.80;;
4957;SDS011;2494;51.872;9.688;2023-05-10T10:58:51;2.37;;;1.70;;
4957;SDS011;2494;51.872;9.688;2023-05-10T11:01:37;2.33;;;2.13;;
4957;SDS011;2494;51.872;9.688;2023-05-10T11:04:27;1.90;;;1.73;;
4957;SDS011;2494;51.872;9.688;2023-05-10T11:07:15;2.10;;;1.90;;
4957;SDS011;2494;51.872;9.688;2023-05-10T11:10:04;2.90;;;1.70;;
4957;SDS011;2494;51.872;9.688;2023-05-10T11:12:52;2.27;;;2.07;;
4957;SDS011;2494;51.872;9.688;2023-05-10T11:15:43;3.30;;;2.30;;
4957;SDS011;2494;51.872;9.688;2023-05-10T11:18:33;2.67;;;2.47;;
4957;SDS011;2494;51.872;9.688;2023-05-10T11:21:18;2.83;;;2.63;;
4957;SDS011;2494;51.872;9.688;2023-05-10T11:24:09;4.80;;;3.57;;
4957;SDS011;2494;51.872;9.688;2023-05-10T11:26:57;5.27;;;4.70;;
4957;SDS011;2494;51.872;9.688;2023-05-10T11:29:45;4.87;;;4.43;;
4957;SDS011;2494;51.872;9.688;2023-05-10T11:32:32;6.67;;;6.07;;
4957;SDS011;2494;51.872;9.688;2023-05-10T11:35:17;8.80;;;6.80;;
4957;SDS011;2494;51.872;9.688;2023-05-10T11:38:04;7.80;;;7.20;;
4957;SDS011;2494;51.872;9.688;2023-05-10T11:40:50;7.57;;;7.00;;
4957;SDS011;2494;51.872;9.688;2023-05-10T11:43:38;8.33;;;7.47;;
4957;SDS011;2494;51.872;9.688;2023-05-10T11:46:25;10.10;;;9.10;;
4957;SDS011;2494;51.872;9.688;2023-05-10T11:49:13;10.73;;;9.50;;
4957;SDS011;2494;51.872;9.688;2023-05-10T11:52:05;9.03;;;8.10;;
4957;SDS011;2494;51.872;9.688;2023-05-10T11:54:51;9.83;;;7.70;;
4957;SDS011;2494;51.872;9.688;2023-05-10T11:57:37;7.00;;;6.40;;
4957;SDS011;2494;51.872;9.688;2023-05-10T12:00:25;6.10;;;5.60;;
4957;SDS011;2494;51.872;9.688;2023-05-10T12:03:11;5.33;;;4.83;;
4957;SDS011;2494;51.872;9.688;2023-05-10T12:05:59;5.77;;;5.17;;
4957;SDS011;2494;51.872;9.688;2023-05-10T12:08:45;6.13;;;5.73;;
4957;SDS011;2494;51.872;9.688;2023-05-10T12:11:31;6.03;;;5.63;;
4957;SDS011;2494;51.872;9.688;2023-05-10T12:14:16;5.10;;;4.77;;
4957;SDS011;2494;51.872;9.688;2023-05-10T12:17:03;5.03;;;4.40;;
4957;SDS011;2494;51.872;9.688;2023-05-10T12:19:47;4.30;;;4.10;;
4957;SDS011;2494;51.872;9.688;2023-05-10T12:22:35;4.97;;;4.20;;
4957;SDS011;2494;51.872;9.688;2023-05-10T12:25:21;4.97;;;4.57;;
4957;SDS011;2494;51.872;9.688;2023-05-10T12:28:07;4.67;;;4.37;;
4957;SDS011;2494;51.872;9.688;2023-05-10T12:30:53;4.87;;;4.57;;
4957;SDS011;2494;51.872;9.688;2023-05-10T12:33:39;3.83;;;3.60;;
4957;SDS011;2494;51.872;9.688;2023-05-10T12:36:26;4.60;;;3.90;;
4957;SDS011;2494;51.872;9.688;2023-05-10T12:39:14;4.00;;;3.80;;
4957;SDS011;2494;51.872;9.688;2023-05-10T12:41:59;5.70;;;4.70;;
4957;SDS011;2494;51.872;9.688;2023-05-10T12:44:45;4.40;;;4.10;;
4957;SDS011;2494;51.872;9.688;2023-05-10T12:47:31;8.00;;;4.20;;
4957;SDS011;2494;51.872;9.688;2023-05-10T12:50:16;4.40;;;4.20;;
4957;SDS011;2494;51.872;9.688;2023-05-10T12:53:03;4.30;;;4.00;;
4957;SDS011;2494;51.872;9.688;2023-05-10T12:55:50;4.60;;;4.30;;
4957;SDS011;2494;51.872;9.688;2023-05-10T12:58:35;5.50;;;4.90;;
4957;SDS011;2494;51.872;9.688;2023-05-10T13:01:20;5.83;;;5.23;;
4957;SDS011;2494;51.872;9.688;2023-05-10T13:04:06;5.67;;;5.27;;
4957;SDS011;2494;51.872;9.688;2023-05-10T13:06:54;9.23;;;5.17;;
4957;SDS011;2494;51.872;9.688;2023-05-10T13:09:42;3.90;;;3.60;;
4957;SDS011;2494;51.872;9.688;2023-05-10T13:12:29;4.77;;;4.47;;
4957;SDS011;2494;51.872;9.688;2023-05-10T13:15:14;4.50;;;4.20;;
4957;SDS011;2494;51.872;9.688;2023-05-10T13:18:00;4.20;;;3.90;;
4957;SDS011;2494;51.872;9.688;2023-05-10T13:20:45;6.50;;;4.67;;
4957;SDS011;2494;51.872;9.688;2023-05-10T13:23:31;3.80;;;3.50;;
4957;SDS011;2494;51.872;9.688;2023-05-10T13:26:16;4.30;;;4.10;;
4957;SDS011;2494;51.872;9.688;2023-05-10T13:29:03;4.90;;;4.10;;
4957;SDS011;2494;51.872;9.688;2023-05-10T13:31:49;4.23;;;3.93;;
4957;SDS011;2494;51.872;9.688;2023-05-10T13:34:36;5.03;;;4.03;;
4957;SDS011;2494;51.872;9.688;2023-05-10T13:37:23;5.00;;;4.70;;
4957;SDS011;2494;51.872;9.688;2023-05-10T13:40:10;4.30;;;4.10;;
4957;SDS011;2494;51.872;9.688;2023-05-10T13:42:56;3.60;;;3.40;;
4957;SDS011;2494;51.872;9.688;2023-05-10T13:45:43;3.67;;;3.37;;
4957;SDS011;2494;51.872;9.688;2023-05-10T13:48:28;4.40;;;4.10;;
4957;SDS011;2494;51.872;9.688;2023-05-10T13:51:14;4.40;;;4.00;;
4957;SDS011;2494;51.872;9.688;2023-05-10T13:53:59;5.03;;;4.23;;
4957;SDS011;2494;51.872;9.688;2023-05-10T13:56:45;7.90;;;4.93;;
4957;SDS011;2494;51.872;9.688;2023-05-10T13:59:30;8.50;;;4.50;;
4957;SDS011;2494;51.872;9.688;2023-05-10T14:02:18;4.50;;;4.20;;
4957;SDS011;2494;51.872;9.688;2023-05-10T14:05:04;3.60;;;3.30;;
4957;SDS011;2494;51.872;9.688;2023-05-10T14:07:49;3.37;;;3.17;;
4957;SDS011;2494;51.872;9.688;2023-05-10T14:10:37;5.07;;;3.83;;
4957;SDS011;2494;51.872;9.688;2023-05-10T14:13:25;3.33;;;3.13;;
4957;SDS011;2494;51.872;9.688;2023-05-10T14:16:11;5.87;;;4.20;;
4957;SDS011;2494;51.872;9.688;2023-05-10T14:19:00;5.30;;;4.50;;
4957;SDS011;2494;51.872;9.688;2023-05-10T14:21:46;4.53;;;4.23;;
4957;SDS011;2494;51.872;9.688;2023-05-10T14:24:32;3.90;;;3.60;;
4957;SDS011;2494;51.872;9.688;2023-05-10T14:27:19;4.60;;;4.30;;
4957;SDS011;2494;51.872;9.688;2023-05-10T14:30:05;4.93;;;3.50;;
4957;SDS011;2494;51.872;9.688;2023-05-10T14:32:50;3.70;;;3.47;;
4957;SDS011;2494;51.872;9.688;2023-05-10T14:35:39;3.97;;;3.73;;
4957;SDS011;2494;51.872;9.688;2023-05-10T14:38:24;6.07;;;4.50;;
4957;SDS011;2494;51.872;9.688;2023-05-10T14:41:10;5.93;;;4.20;;
4957;SDS011;2494;51.872;9.688;2023-05-10T14:43:58;5.57;;;5.17;;
4957;SDS011;2494;51.872;9.688;2023-05-10T14:46:43;6.03;;;5.50;;
4957;SDS011;2494;51.872;9.688;2023-05-10T14:49:28;5.00;;;4.70;;
4957;SDS011;2494;51.872;9.688;2023-05-10T14:52:15;4.97;;;4.43;;
4957;SDS011;2494;51.872;9.688;2023-05-10T14:55:00;6.50;;;4.23;;
4957;SDS011;2494;51.872;9.688;2023-05-10T14:57:46;6.00;;;5.50;;
4957;SDS011;2494;51.872;9.688;2023-05-10T15:00:33;5.07;;;4.77;;
4957;SDS011;2494;51.872;9.688;2023-05-10T15:03:18;5.57;;;5.10;;
4957;SDS011;2494;51.872;9.688;2023-05-10T15:06:04;5.80;;;5.37;;
4957;SDS011;2494;51.872;9.688;2023-05-10T15:08:51;5.83;;;5.43;;
4957;SDS011;2494;51.872;9.688;2023-05-10T15:11:36;6.93;;;6.40;;
4957;SDS011;2494;51.872;9.688;2023-05-10T15:14:22;6.80;;;6.20;;
4957;SDS011;2494;51.872;9.688;2023-05-10T15:17:07;6.40;;;5.80;;
4957;SDS011;2494;51.872;9.688;2023-05-10T15:19:53;10.83;;;6.37;;
4957;SDS011;2494;51.872;9.688;2023-05-10T15:22:42;7.87;;;7.13;;
4957;SDS011;2494;51.872;9.688;2023-05-10T15:25:29;7.93;;;7.23;;
4957;SDS011;2494;51.872;9.688;2023-05-10T15:28:14;7.73;;;6.93;;
4957;SDS011;2494;51.872;9.688;2023-05-10T15:30:59;8.17;;;7.13;;
4957;SDS011;2494;51.872;9.688;2023-05-10T15:33:45;11.43;;;8.27;;
4957;SDS011;2494;51.872;9.688;2023-05-10T15:36:31;9.27;;;8.37;;
4957;SDS011;2494;51.872;9.688;2023-05-10T15:39:16;11.47;;;8.30;;
4957;SDS011;2494;51.872;9.688;2023-05-10T15:42:03;8.10;;;7.03;;
4957;SDS011;2494;51.872;9.688;2023-05-10T15:44:48;8.83;;;7.93;;
4957;SDS011;2494;51.872;9.688;2023-05-10T15:47:34;9.27;;;7.33;;
4957;SDS011;2494;51.872;9.688;2023-05-10T15:50:20;7.43;;;6.83;;
4957;SDS011;2494;51.872;9.688;2023-05-10T15:53:06;7.67;;;7.07;;
4957;SDS011;2494;51.872;9.688;2023-05-10T15:55:53;8.03;;;7.33;;
4957;SDS011;2494;51.872;9.688;2023-05-10T15:58:40;9.43;;;7.40;;
4957;SDS011;2494;51.872;9.688;2023-05-10T16:01:26;8.63;;;7.83;;
4957;SDS011;2494;51.872;9.688;2023-05-10T16:04:12;7.83;;;7.03;;
4957;SDS011;2494;51.872;9.688;2023-05-10T16:06:57;7.60;;;6.90;;
4957;SDS011;2494;51.872;9.688;2023-05-10T16:09:42;8.30;;;7.50;;
4957;SDS011;2494;51.872;9.688;2023-05-10T16:12:29;10.30;;;8.00;;
4957;SDS011;2494;51.872;9.688;2023-05-10T16:15:17;7.97;;;7.30;;
4957;SDS011;2494;51.872;9.688;2023-05-10T16:18:03;7.60;;;6.83;;
4957;SDS011;2494;51.872;9.688;2023-05-10T16:20:48;9.27;;;6.10;;
4957;SDS011;2494;51.872;9.688;2023-05-10T16:23:34;7.17;;;6.53;;
4957;SDS011;2494;51.872;9.688;2023-05-10T16:26:19;6.07;;;5.63;;
4957;SDS011;2494;51.872;9.688;2023-05-10T16:29:05;6.80;;;6.30;;
4957;SDS011;2494;51.872;9.688;2023-05-10T16:31:52;6.53;;;5.87;;
4957;SDS011;2494;51.872;9.688;2023-05-10T16:34:37;6.30;;;5.77;;
4957;SDS011;2494;51.872;9.688;2023-05-10T16:37:23;7.17;;;6.47;;
4957;SDS011;2494;51.872;9.688;2023-05-10T16:40:09;7.73;;;6.00;;
4957;SDS011;2494;51.872;9.688;2023-05-10T16:42:54;6.73;;;6.07;;
4957;SDS011;2494;51.872;9.688;2023-05-10T16:45:43;6.80;;;6.30;;
4957;SDS011;2494;51.872;9.688;2023-05-10T16:48:30;5.70;;;5.20;;
4957;SDS011;2494;51.872;9.688;2023-05-10T16:51:16;10.53;;;5.73;;
4957;SDS011;2494;51.872;9.688;2023-05-10T16:54:02;5.53;;;5.00;;
4957;SDS011;2494;51.872;9.688;2023-05-10T16:56:51;6.30;;;5.23;;
4957;SDS011;2494;51.872;9.688;2023-05-10T16:59:37;5.83;;;5.30;;
4957;SDS011;2494;51.872;9.688;2023-05-10T17:02:22;6.03;;;5.50;;
4957;SDS011;2494;51.872;9.688;2023-05-10T17:05:09;5.27;;;4.87;;
4957;SDS011;2494;51.872;9.688;2023-05-10T17:07:55;4.60;;;4.30;;
4957;SDS011;2494;51.872;9.688;2023-05-10T17:10:42;5.20;;;4.80;;
4957;SDS011;2494;51.872;9.688;2023-05-10T17:13:28;5.47;;;4.97;;
4957;SDS011;2494;51.872;9.688;2023-05-10T17:16:14;6.00;;;5.50;;